Time;durP1;ratioP1;P1;durP2;ratioP2;P2;SDS_P1;SDS_P2;PMS_P1;PMS_P2;Temp;Humidity;BMP_temperature;BMP_pressure;BME280_temperature;BME280_humidity;BME280_pressure;Samples;Min_cycle;Max_cycle;Signal;HPM_P1;HPM_P2
2023/12/07 00:01:43;;;;;;;3.22;3.03;;;2.20;99.90;;;;;;5078051;28;20232;-74
2023/12/07 00:04:10;;;;;;;3.22;3.03;;;2.10;99.90;;;;;;5066119;28;20622;-74
2023/12/07 00:06:37;;;;;;;3.47;3.28;;;2.10;99.90;;;;;;5069099;28;20199;-74
2023/12/07 00:09:04;;;;;;;3.40;3.13;;;2.10;99.90;;;;;;5068056;28;20214;-75
2023/12/07 00:11:31;;;;;;;3.55;3.35;;;2.10;99.90;;;;;;5073745;28;20207;-76
2023/12/07 00:14:00;;;;;;;3.53;3.33;;;2.10;99.90;;;;;;5074111;28;20703;-75
2023/12/07 00:16:27;;;;;;;3.60;3.30;;;2.10;99.90;;;;;;5072142;28;20212;-74
2023/12/07 00:18:54;;;;;;;3.80;3.60;;;2.00;99.90;;;;;;5070563;28;20229;-75
2023/12/07 00:21:21;;;;;;;3.40;3.30;;;2.00;99.90;;;;;;5067861;28;20888;-75
2023/12/07 00:23:48;;;;;;;3.22;3.03;;;2.00;99.90;;;;;;5064625;28;20218;-76
2023/12/07 00:26:15;;;;;;;3.33;3.13;;;2.00;99.90;;;;;;5068738;28;20213;-76
2023/12/07 00:28:42;;;;;;;3.17;3.08;;;1.90;99.90;;;;;;5067893;28;20297;-75
2023/12/07 00:31:11;;;;;;;3.47;3.28;;;2.00;99.90;;;;;;5069111;28;20698;-76
2023/12/07 00:33:38;;;;;;;3.08;2.97;;;2.00;99.90;;;;;;5066921;28;20227;-76
2023/12/07 00:36:06;;;;;;;3.03;2.92;;;2.00;99.90;;;;;;5071883;28;20198;-74
2023/12/07 00:38:33;;;;;;;3.38;3.17;;;2.00;99.90;;;;;;5064516;28;20601;-77
2023/12/07 00:41:00;;;;;;;3.40;3.20;;;1.90;99.90;;;;;;5076345;28;20197;-76
2023/12/07 00:43:27;;;;;;;3.65;3.45;;;1.90;99.90;;;;;;5072103;28;20724;-76
2023/12/07 00:45:54;;;;;;;3.28;3.17;;;1.90;99.90;;;;;;5075389;28;20628;-76
2023/12/07 00:48:23;;;;;;;3.95;3.75;;;1.90;99.90;;;;;;5073070;28;20223;-75
2023/12/07 00:50:50;;;;;;;3.78;3.58;;;1.90;99.90;;;;;;5061437;28;20198;-75
2023/12/07 00:53:17;;;;;;;3.60;3.40;;;1.90;99.90;;;;;;5063652;28;20230;-75
2023/12/07 00:55:44;;;;;;;4.30;4.00;;;2.00;99.90;;;;;;5077625;28;20213;-75
2023/12/07 00:58:11;;;;;;;3.50;3.30;;;2.00;99.90;;;;;;5069427;28;20641;-75
2023/12/07 01:00:40;;;;;;;3.20;3.10;;;2.00;99.90;;;;;;5072137;28;20202;-76
2023/12/07 01:03:07;;;;;;;3.10;3.00;;;2.00;99.90;;;;;;5067350;28;20226;-78
2023/12/07 01:05:35;;;;;;;3.80;3.60;;;2.00;99.90;;;;;;5068600;28;20205;-74
2023/12/07 01:08:02;;;;;;;3.40;3.20;;;2.00;99.90;;;;;;5064963;28;20230;-77
2023/12/07 01:10:29;;;;;;;3.70;3.50;;;1.90;99.90;;;;;;5069899;28;20213;-76
2023/12/07 01:12:56;;;;;;;3.50;3.30;;;1.90;99.90;;;;;;5063176;28;20227;-75
2023/12/07 01:15:23;;;;;;;3.03;2.92;;;1.90;99.90;;;;;;5068130;28;20206;-78
2023/12/07 01:17:50;;;;;;;3.10;3.00;;;1.90;99.90;;;;;;5067559;28;20222;-75
2023/12/07 01:20:18;;;;;;;3.55;3.38;;;1.80;99.90;;;;;;5069895;28;20255;-74
2023/12/07 01:22:47;;;;;;;3.60;3.40;;;1.80;99.90;;;;;;5067345;28;20292;-76
2023/12/07 01:25:19;;;;;;;3.38;3.17;;;1.80;99.90;;;;;;5065207;28;20210;-75
2023/12/07 01:27:46;;;;;;;2.58;2.47;;;1.90;99.90;;;;;;5057120;28;20218;-76
2023/12/07 01:30:14;;;;;;;3.25;3.10;;;1.90;99.90;;;;;;5062330;28;20407;-76
2023/12/07 01:32:41;;;;;;;3.40;3.20;;;1.80;99.90;;;;;;5062817;28;20241;-77
2023/12/07 01:35:09;;;;;;;3.35;3.15;;;1.80;99.90;;;;;;5067478;28;20685;-75
2023/12/07 01:37:36;;;;;;;3.20;3.10;;;1.80;99.90;;;;;;5063372;28;20217;-75
2023/12/07 01:40:09;;;;;;;2.92;2.83;;;1.80;99.90;;;;;;5066573;28;21072;-75
2023/12/07 01:42:37;;;;;;;2.80;2.70;;;1.80;99.90;;;;;;5059084;28;20230;-75
2023/12/07 01:45:05;;;;;;;2.85;2.75;;;1.80;99.90;;;;;;5062655;28;20210;-74
2023/12/07 01:47:32;;;;;;;3.50;3.30;;;1.80;99.90;;;;;;5064758;28;20253;-75
2023/12/07 01:50:00;;;;;;;3.50;3.30;;;1.80;99.90;;;;;;5062618;28;20195;-75
2023/12/07 01:52:30;;;;;;;3.55;3.25;;;1.70;99.90;;;;;;5064210;28;20201;-75
2023/12/07 01:54:57;;;;;;;3.28;3.08;;;1.70;99.90;;;;;;5060388;28;20195;-76
2023/12/07 01:57:25;;;;;;;3.70;3.40;;;1.60;99.90;;;;;;5061467;28;20719;-75
2023/12/07 01:59:52;;;;;;;3.30;3.10;;;1.60;99.90;;;;;;5066872;28;22155;-75
2023/12/07 02:02:20;;;;;;;2.85;2.75;;;1.50;99.90;;;;;;5066796;28;20202;-76
2023/12/07 02:04:47;;;;;;;3.50;3.30;;;1.60;99.90;;;;;;5063039;28;20210;-75
2023/12/07 02:07:14;;;;;;;3.50;3.25;;;1.50;99.90;;;;;;5057828;28;21051;-75
2023/12/07 02:09:41;;;;;;;3.53;3.42;;;1.60;99.90;;;;;;5062920;28;20198;-75
2023/12/07 02:12:09;;;;;;;3.00;2.90;;;1.60;99.90;;;;;;5065016;28;20210;-75
2023/12/07 02:14:37;;;;;;;3.35;3.20;;;1.60;99.90;;;;;;5065258;28;20305;-77
2023/12/07 02:17:15;;;;;;;3.45;3.25;;;1.60;99.90;;;;;;5070000;28;20210;-75
2023/12/07 02:19:57;;;;;;;3.45;3.25;;;1.60;99.90;;;;;;5067474;28;20229;-75
2023/12/07 02:22:29;;;;;;;3.65;3.45;;;1.50;99.90;;;;;;5070712;28;20194;-75
2023/12/07 02:25:07;;;;;;;3.30;3.10;;;1.50;99.90;;;;;;5074077;28;20191;-75
2023/12/07 02:27:38;;;;;;;2.90;2.80;;;1.50;99.90;;;;;;5066010;28;20228;-75
2023/12/07 02:30:06;;;;;;;3.33;3.13;;;1.50;99.90;;;;;;5072112;28;20198;-77
2023/12/07 02:32:33;;;;;;;3.38;3.28;;;1.50;99.90;;;;;;5065789;28;20224;-75
2023/12/07 02:35:02;;;;;;;3.33;3.13;;;1.50;99.90;;;;;;5073395;28;20205;-76
2023/12/07 02:37:32;;;;;;;3.08;2.90;;;1.50;99.90;;;;;;5067956;28;20657;-76
2023/12/07 02:39:59;;;;;;;3.35;3.25;;;1.60;99.90;;;;;;5068941;28;20219;-76
2023/12/07 02:42:27;;;;;;;3.03;2.92;;;1.50;99.90;;;;;;5069908;28;20206;-77
2023/12/07 02:44:56;;;;;;;3.20;3.10;;;1.50;99.90;;;;;;5073597;28;20226;-74
2023/12/07 02:47:23;;;;;;;2.97;2.88;;;1.50;99.90;;;;;;5068984;28;20198;-76
2023/12/07 02:49:50;;;;;;;2.60;2.50;;;1.50;99.90;;;;;;5069199;28;20198;-75
2023/12/07 02:52:17;;;;;;;3.13;3.03;;;1.50;99.90;;;;;;5065894;28;20202;-75
2023/12/07 02:54:44;;;;;;;3.33;3.20;;;1.50;99.90;;;;;;5066642;28;20225;-76
2023/12/07 02:57:11;;;;;;;3.35;3.15;;;1.50;99.90;;;;;;5069321;28;20210;-78
2023/12/07 02:59:38;;;;;;;3.65;3.45;;;1.50;99.90;;;;;;5068614;28;20593;-75
2023/12/07 03:02:07;;;;;;;3.30;3.20;;;1.50;99.90;;;;;;5072371;28;20198;-77
2023/12/07 03:04:34;;;;;;;3.00;2.90;;;1.50;99.90;;;;;;5074271;28;20229;-75
2023/12/07 03:07:01;;;;;;;3.60;3.40;;;1.50;99.90;;;;;;5071919;28;20190;-77
2023/12/07 03:09:28;;;;;;;2.92;2.83;;;1.50;99.90;;;;;;5068996;28;20580;-76
2023/12/07 03:11:55;;;;;;;2.83;2.72;;;1.50;99.90;;;;;;5068076;28;20206;-75
2023/12/07 03:14:22;;;;;;;2.90;2.80;;;1.50;99.90;;;;;;5062408;28;20751;-76
2023/12/07 03:16:49;;;;;;;3.13;3.03;;;1.50;99.90;;;;;;5066168;28;20194;-76
2023/12/07 03:19:17;;;;;;;3.00;2.90;;;1.50;99.90;;;;;;5066164;28;20221;-75
2023/12/07 03:21:45;;;;;;;3.00;2.90;;;1.50;99.90;;;;;;5072334;28;20201;-76
2023/12/07 03:24:12;;;;;;;3.10;3.00;;;1.40;99.90;;;;;;5069155;28;20279;-75
2023/12/07 03:26:39;;;;;;;3.10;3.00;;;1.40;99.90;;;;;;5063158;28;20209;-77
2023/12/07 03:29:06;;;;;;;2.97;2.88;;;1.40;99.90;;;;;;5070992;28;20207;-76
2023/12/07 03:31:33;;;;;;;3.08;2.97;;;1.40;99.90;;;;;;5070584;28;20194;-76
2023/12/07 03:34:00;;;;;;;3.10;3.00;;;1.40;99.90;;;;;;5069384;28;20222;-77
2023/12/07 03:36:29;;;;;;;2.90;2.80;;;1.40;99.90;;;;;;5069439;28;20198;-76
2023/12/07 03:38:56;;;;;;;3.22;3.13;;;1.40;99.90;;;;;;5071819;28;20237;-76
2023/12/07 03:41:22;;;;;;;3.08;2.97;;;1.40;99.90;;;;;;5069903;28;20233;-76
2023/12/07 03:43:49;;;;;;;3.20;3.10;;;1.40;99.90;;;;;;5069212;28;20218;-76
2023/12/07 03:46:17;;;;;;;3.22;3.08;;;1.40;99.90;;;;;;5067448;28;20206;-76
2023/12/07 03:48:44;;;;;;;3.70;3.50;;;1.40;99.90;;;;;;5074601;28;20606;-77
2023/12/07 03:51:16;;;;;;;3.25;3.15;;;1.40;99.90;;;;;;5069208;28;20198;-76
2023/12/07 03:53:44;;;;;;;3.45;3.25;;;1.40;99.90;;;;;;5077840;28;20218;-76
2023/12/07 03:56:11;;;;;;;2.80;2.70;;;1.40;99.90;;;;;;5069245;28;20199;-77
2023/12/07 03:58:39;;;;;;;3.45;3.30;;;1.40;99.90;;;;;;5059990;28;20229;-77
2023/12/07 04:01:06;;;;;;;3.35;3.17;;;1.40;99.90;;;;;;5066441;28;20202;-76
2023/12/07 04:03:33;;;;;;;2.70;2.60;;;1.40;99.90;;;;;;5073437;28;20221;-77
2023/12/07 04:06:00;;;;;;;3.42;3.22;;;1.30;99.90;;;;;;5070611;28;20194;-76
2023/12/07 04:08:27;;;;;;;3.13;3.00;;;1.40;99.90;;;;;;5063209;28;20697;-76
2023/12/07 04:10:55;;;;;;;3.42;3.22;;;1.40;99.90;;;;;;5072320;28;20195;-76
2023/12/07 04:13:22;;;;;;;2.75;2.65;;;1.40;99.90;;;;;;5070878;28;20265;-76
2023/12/07 04:15:49;;;;;;;3.20;3.10;;;1.40;99.90;;;;;;5064994;28;20586;-76
2023/12/07 04:18:17;;;;;;;3.05;2.92;;;1.40;99.90;;;;;;5075629;28;20222;-76
2023/12/07 04:20:44;;;;;;;2.95;2.85;;;1.40;99.90;;;;;;5071191;28;20653;-76
2023/12/07 04:23:11;;;;;;;3.42;3.22;;;1.40;99.90;;;;;;5070973;28;20230;-77
2023/12/07 04:25:38;;;;;;;3.40;2.80;;;1.40;99.90;;;;;;5065740;28;20671;-77
2023/12/07 04:28:07;;;;;;;2.90;2.80;;;1.30;99.90;;;;;;5067755;28;20218;-76
2023/12/07 04:30:34;;;;;;;2.97;2.80;;;1.30;99.90;;;;;;5075335;28;20666;-76
2023/12/07 04:33:01;;;;;;;3.10;3.00;;;1.30;99.90;;;;;;5068411;28;20218;-76
2023/12/07 04:35:28;;;;;;;3.22;3.13;;;1.30;99.90;;;;;;5070779;28;20210;-76
2023/12/07 04:37:55;;;;;;;3.20;3.00;;;1.30;99.90;;;;;;5066770;28;20599;-77
2023/12/07 04:40:22;;;;;;;3.17;3.08;;;1.30;99.90;;;;;;5067168;28;20248;-76
2023/12/07 04:42:51;;;;;;;3.00;2.90;;;1.30;99.90;;;;;;5069184;28;20716;-77
2023/12/07 04:45:19;;;;;;;3.60;3.40;;;1.30;99.90;;;;;;5076528;28;20213;-76
2023/12/07 04:47:47;;;;;;;3.40;3.22;;;1.20;99.90;;;;;;5068539;28;20294;-77
2023/12/07 04:50:14;;;;;;;3.45;3.30;;;1.20;99.90;;;;;;5066859;28;20198;-76
2023/12/07 04:52:41;;;;;;;3.00;2.90;;;1.10;99.90;;;;;;5066054;28;20225;-77
2023/12/07 04:55:08;;;;;;;3.15;3.05;;;1.10;99.90;;;;;;5068275;28;20194;-76
2023/12/07 04:57:36;;;;;;;2.78;2.67;;;1.10;99.90;;;;;;5064454;28;20222;-76
2023/12/07 05:00:05;;;;;;;3.42;3.33;;;1.10;99.90;;;;;;5063652;28;20219;-76
2023/12/07 05:02:34;;;;;;;3.25;3.05;;;1.10;99.90;;;;;;5065217;28;20575;-76
2023/12/07 05:05:01;;;;;;;2.72;2.63;;;1.10;99.90;;;;;;5068813;28;20202;-76
2023/12/07 05:07:28;;;;;;;3.28;3.08;;;1.10;99.90;;;;;;5068741;28;20656;-75
2023/12/07 05:09:55;;;;;;;3.20;2.90;;;1.10;99.90;;;;;;5067628;28;20198;-77
2023/12/07 05:12:22;;;;;;;3.40;3.20;;;1.10;99.90;;;;;;5068262;28;20194;-76
2023/12/07 05:14:50;;;;;;;2.80;2.70;;;1.10;99.90;;;;;;5073919;28;20255;-76
2023/12/07 05:17:17;;;;;;;3.95;3.75;;;1.00;99.90;;;;;;5061061;28;20558;-76
2023/12/07 05:19:46;;;;;;;3.70;3.50;;;1.00;99.90;;;;;;5069663;28;20598;-77
2023/12/07 05:22:15;;;;;;;3.90;3.70;;;1.00;99.90;;;;;;5067367;28;20538;-76
2023/12/07 05:24:42;;;;;;;4.35;4.05;;;1.00;99.90;;;;;;5067150;28;20222;-76
2023/12/07 05:27:09;;;;;;;3.90;3.70;;;1.00;99.90;;;;;;5063281;28;20205;-77
2023/12/07 05:29:37;;;;;;;3.88;3.67;;;1.00;99.90;;;;;;5064552;28;20692;-76
2023/12/07 05:32:04;;;;;;;3.67;3.47;;;1.10;99.90;;;;;;5072282;28;20206;-76
2023/12/07 05:34:31;;;;;;;3.83;3.63;;;1.10;99.90;;;;;;5068358;28;20261;-76
2023/12/07 05:36:59;;;;;;;3.50;3.30;;;1.00;99.90;;;;;;5069783;28;20205;-77
2023/12/07 05:39:27;;;;;;;3.85;3.65;;;1.00;99.90;;;;;;5067739;28;20226;-77
2023/12/07 05:41:54;;;;;;;3.50;3.30;;;1.00;99.90;;;;;;5071241;28;20193;-77
2023/12/07 05:44:22;;;;;;;3.53;3.33;;;1.00;99.90;;;;;;5070097;28;20214;-77
2023/12/07 05:46:49;;;;;;;3.50;3.30;;;1.00;99.90;;;;;;5072765;28;20218;-76
2023/12/07 05:49:16;;;;;;;3.20;3.03;;;1.00;99.90;;;;;;5068380;28;20218;-76
2023/12/07 05:51:43;;;;;;;3.20;3.00;;;1.00;99.90;;;;;;5067339;28;20612;-76
2023/12/07 05:54:12;;;;;;;3.80;3.60;;;1.10;99.90;;;;;;5074140;28;20230;-77
2023/12/07 05:56:39;;;;;;;3.17;3.08;;;1.10;99.90;;;;;;5074509;28;20565;-76
2023/12/07 06:08:53;;;;;;;4.28;3.97;;;1.00;99.90;;;;;;5042034;28;20225;-76
2023/12/07 06:12:14;;;;;;;3.70;3.50;;;1.00;99.90;;;;;;5074407;28;20191;-76
2023/12/07 06:17:53;;;;;;;3.92;3.72;;;1.10;99.90;;;;;;5057726;28;20541;-77
2023/12/07 06:20:21;;;;;;;4.38;4.13;;;1.10;99.90;;;;;;5069039;28;20222;-77
2023/12/07 06:22:49;;;;;;;3.65;3.35;;;1.10;99.90;;;;;;5056129;28;20214;-77
2023/12/07 06:25:25;;;;;;;4.13;3.85;;;1.10;99.90;;;;;;5067545;28;20657;-76
2023/12/07 06:37:21;;;;;;;4.78;4.40;;;1.00;99.90;;;;;;5050564;28;20213;-76
2023/12/07 06:39:53;;;;;;;4.30;4.00;;;0.90;99.90;;;;;;5068270;28;20224;-76
2023/12/07 06:42:22;;;;;;;4.28;3.97;;;0.90;99.90;;;;;;5069706;28;20544;-77
2023/12/07 06:44:50;;;;;;;3.72;3.53;;;0.90;99.90;;;;;;5069598;28;20229;-75
2023/12/07 06:47:18;;;;;;;3.28;3.08;;;0.90;99.90;;;;;;5076286;28;20230;-76
2023/12/07 06:49:45;;;;;;;3.50;3.30;;;1.00;99.90;;;;;;5072114;28;20210;-76
2023/12/07 06:52:11;;;;;;;3.25;3.10;;;1.10;99.90;;;;;;5062635;28;20249;-78
2023/12/07 06:54:39;;;;;;;3.70;3.50;;;1.10;99.90;;;;;;5071176;28;20318;-76
2023/12/07 06:57:07;;;;;;;3.70;3.50;;;1.10;99.90;;;;;;5070412;28;20209;-76
2023/12/07 06:59:34;;;;;;;3.60;3.40;;;1.10;99.90;;;;;;5069491;28;20246;-76
2023/12/07 07:02:02;;;;;;;3.13;3.03;;;1.20;99.90;;;;;;5068551;28;20206;-76
2023/12/07 07:04:31;;;;;;;3.30;3.10;;;1.20;99.90;;;;;;5076096;28;20237;-77
2023/12/07 07:06:58;;;;;;;3.75;3.55;;;1.20;99.90;;;;;;5072391;28;20207;-76
2023/12/07 07:09:25;;;;;;;3.08;2.97;;;1.20;99.90;;;;;;5072650;28;20673;-76
2023/12/07 07:11:53;;;;;;;3.60;3.40;;;1.10;99.90;;;;;;5071310;28;20202;-76
2023/12/07 07:14:20;;;;;;;2.92;2.72;;;1.10;99.90;;;;;;5066246;28;20218;-76
2023/12/07 07:16:47;;;;;;;3.70;3.50;;;1.10;99.90;;;;;;5066204;28;20640;-76
2023/12/07 07:19:16;;;;;;;3.63;3.42;;;1.10;99.90;;;;;;5070685;28;20228;-75
2023/12/07 07:21:45;;;;;;;3.00;2.90;;;1.10;99.90;;;;;;5071400;28;20209;-75
2023/12/07 07:24:12;;;;;;;3.78;3.58;;;1.20;99.90;;;;;;5069592;28;20264;-78
2023/12/07 07:26:39;;;;;;;3.30;3.20;;;1.20;99.90;;;;;;5069190;28;20206;-76
2023/12/07 07:29:06;;;;;;;3.28;3.08;;;1.20;99.90;;;;;;5068817;28;20636;-76
2023/12/07 07:31:34;;;;;;;3.47;3.28;;;1.20;99.90;;;;;;5065206;28;20217;-75
2023/12/07 07:34:01;;;;;;;3.65;3.45;;;1.20;99.90;;;;;;5069369;28;20699;-76
2023/12/07 07:36:28;;;;;;;3.60;3.40;;;1.10;99.90;;;;;;5072435;28;20217;-75
2023/12/07 07:38:57;;;;;;;3.30;3.10;;;1.10;99.90;;;;;;5072291;28;20229;-77
2023/12/07 07:41:24;;;;;;;3.72;3.53;;;1.20;99.90;;;;;;5068181;28;20218;-76
2023/12/07 07:43:51;;;;;;;3.70;3.50;;;1.20;99.90;;;;;;5070602;28;20242;-75
2023/12/07 07:46:18;;;;;;;3.55;3.35;;;1.20;99.90;;;;;;5066490;28;20632;-76
2023/12/07 07:48:45;;;;;;;3.55;3.30;;;1.20;99.90;;;;;;5066608;28;20229;-77
2023/12/07 07:51:12;;;;;;;3.45;3.25;;;1.20;99.90;;;;;;5068850;28;20653;-76
2023/12/07 07:53:39;;;;;;;3.40;3.20;;;1.20;99.90;;;;;;5072564;28;20223;-76
2023/12/07 07:56:09;;;;;;;3.60;3.40;;;1.30;99.90;;;;;;5072616;28;20202;-75
2023/12/07 07:58:36;;;;;;;3.58;3.38;;;1.30;99.90;;;;;;5071893;28;20326;-75
2023/12/07 08:01:03;;;;;;;3.60;3.40;;;1.30;99.90;;;;;;5070280;28;20219;-75
2023/12/07 08:03:30;;;;;;;4.53;4.18;;;1.20;99.90;;;;;;5070000;28;20253;-76
2023/12/07 08:05:57;;;;;;;4.10;3.80;;;1.20;99.90;;;;;;5061570;28;20581;-75
2023/12/07 08:08:26;;;;;;;5.53;5.13;;;1.10;99.90;;;;;;5063340;28;20229;-76
2023/12/07 08:10:53;;;;;;;4.55;4.25;;;1.30;99.90;;;;;;5062669;28;20199;-76
2023/12/07 08:13:21;;;;;;;5.10;4.80;;;2.40;99.90;;;;;;5064142;28;20222;-75
2023/12/07 08:15:52;;;;;;;5.68;4.10;;;3.70;99.90;;;;;;5066974;28;20194;-76
2023/12/07 08:18:21;;;;;;;4.65;4.35;;;4.70;99.90;;;;;;5061549;28;20228;-76
2023/12/07 08:20:48;;;;;;;4.15;3.85;;;5.80;99.90;;;;;;5063109;28;20343;-76
2023/12/07 08:23:15;;;;;;;4.57;4.18;;;6.80;99.90;;;;;;5058666;28;20221;-76
2023/12/07 08:25:43;;;;;;;4.25;3.95;;;7.40;99.90;;;;;;5060288;28;20616;-78
2023/12/07 08:28:10;;;;;;;4.32;4.03;;;7.80;99.90;;;;;;5066134;28;20209;-77
2023/12/07 08:30:38;;;;;;;4.10;3.80;;;8.10;99.90;;;;;;5060940;28;20194;-78
2023/12/07 08:33:06;;;;;;;3.92;3.63;;;8.40;99.90;;;;;;5061794;28;20221;-78
2023/12/07 08:35:33;;;;;;;4.07;3.65;;;8.80;99.90;;;;;;5072199;28;20225;-77
2023/12/07 08:38:00;;;;;;;3.97;3.70;;;9.20;99.90;;;;;;5071595;28;20277;-77
2023/12/07 08:40:27;;;;;;;4.75;4.30;;;9.70;99.90;;;;;;5039667;28;20235;-78
2023/12/07 08:42:56;;;;;;;5.13;4.72;;;10.10;99.90;;;;;;5051333;28;20218;-77
2023/12/07 08:45:23;;;;;;;5.00;4.60;;;10.40;99.90;;;;;;5070094;28;20228;-76
2023/12/07 08:47:52;;;;;;;5.25;4.78;;;10.70;99.90;;;;;;5068429;28;20194;-77
2023/12/07 08:50:19;;;;;;;5.22;4.82;;;11.10;99.90;;;;;;5065454;28;20221;-77
2023/12/07 08:52:46;;;;;;;5.03;4.63;;;11.30;99.90;;;;;;5062749;28;20227;-77
2023/12/07 08:55:15;;;;;;;5.10;4.63;;;11.80;99.90;;;;;;5059803;28;20221;-76
2023/12/07 08:57:42;;;;;;;5.53;4.97;;;12.20;99.90;;;;;;5061812;28;20293;-76
2023/12/07 09:00:12;;;;;;;4.68;4.28;;;12.60;99.90;;;;;;5057200;28;20576;-78
2023/12/07 09:02:39;;;;;;;6.53;4.43;;;12.80;99.90;;;;;;5057506;28;20208;-75
2023/12/07 09:05:09;;;;;;;4.60;4.30;;;13.50;99.90;;;;;;5059864;28;20310;-76
2023/12/07 09:07:36;;;;;;;5.00;4.30;;;14.20;99.90;;;;;;5061469;28;20657;-75
2023/12/07 09:10:04;;;;;;;4.70;4.30;;;15.20;99.90;;;;;;5062193;28;20214;-77
2023/12/07 09:12:31;;;;;;;4.20;3.80;;;16.30;99.90;;;;;;5060209;28;20198;-76
2023/12/07 09:14:58;;;;;;;3.83;3.50;;;17.70;99.90;;;;;;5061840;28;20688;-77
2023/12/07 09:17:25;;;;;;;3.63;3.28;;;18.80;95.40;;;;;;5066332;28;20365;-76
2023/12/07 09:19:52;;;;;;;3.03;2.63;;;19.40;92.30;;;;;;5061571;28;20628;-77
2023/12/07 09:22:21;;;;;;;3.40;3.10;;;20.10;84.70;;;;;;5059964;28;20747;-77
2023/12/07 09:24:48;;;;;;;2.80;2.60;;;20.80;77.10;;;;;;5066329;28;20676;-77
2023/12/07 09:27:15;;;;;;;2.90;2.70;;;21.10;71.10;;;;;;5060016;28;20198;-77
2023/12/07 09:29:42;;;;;;;2.65;2.45;;;21.20;68.20;;;;;;5069032;28;20225;-79
2023/12/07 09:32:09;;;;;;;3.25;2.83;;;21.30;66.30;;;;;;5068853;28;20194;-79
2023/12/07 09:34:36;;;;;;;3.15;2.70;;;21.30;63.40;;;;;;5075975;28;20229;-80
2023/12/07 09:37:10;;;;;;;2.78;2.58;;;21.50;62.30;;;;;;5068828;28;20201;-80
2023/12/07 09:43:09;;;;;;;3.50;3.08;;;22.10;58.70;;;;;;5031585;28;20702;-78
2023/12/07 09:45:37;;;;;;;4.38;3.67;;;21.80;58.70;;;;;;5058233;28;20321;-78
2023/12/07 09:48:11;;;;;;;3.75;3.45;;;21.20;60.70;;;;;;5065799;28;20221;-78
2023/12/07 09:51:14;;;;;;;3.70;3.40;;;20.30;60.60;;;;;;5062773;28;20940;-77
2023/12/07 09:53:54;;;;;;;3.88;3.58;;;19.00;65.00;;;;;;5042578;28;20229;-78
2023/12/07 09:56:32;;;;;;;4.07;3.67;;;17.20;69.80;;;;;;5076669;28;20668;-78
2023/12/07 09:59:07;;;;;;;3.70;3.40;;;15.40;75.60;;;;;;5063468;28;20217;-78
2023/12/07 10:01:35;;;;;;;3.92;3.25;;;14.30;81.10;;;;;;5061228;28;20267;-79
2023/12/07 10:04:20;;;;;;;3.75;3.45;;;13.80;86.30;;;;;;5067163;28;20252;-79
2023/12/07 10:06:49;;;;;;;3.92;3.63;;;13.50;89.20;;;;;;5067901;28;20292;-78
2023/12/07 10:09:16;;;;;;;3.65;3.35;;;13.40;90.20;;;;;;5070502;28;20252;-79
2023/12/07 10:11:44;;;;;;;3.78;3.47;;;13.30;91.30;;;;;;5076720;28;20186;-77
2023/12/07 10:14:12;;;;;;;4.03;3.72;;;13.30;91.90;;;;;;5070321;28;20242;-78
2023/12/07 10:16:39;;;;;;;5.18;3.70;;;13.40;92.40;;;;;;5063910;28;20199;-77
2023/12/07 10:19:19;;;;;;;4.75;3.70;;;13.30;93.00;;;;;;5064310;28;20222;-76
2023/12/07 10:21:46;;;;;;;4.20;3.80;;;13.30;93.30;;;;;;5069505;28;20302;-79
2023/12/07 10:24:13;;;;;;;4.45;4.05;;;13.20;93.00;;;;;;5065900;28;20222;-77
2023/12/07 10:26:41;;;;;;;3.97;3.63;;;13.20;93.80;;;;;;5074707;28;20198;-78
2023/12/07 10:29:08;;;;;;;4.93;4.30;;;13.30;94.50;;;;;;5068723;28;20226;-77
2023/12/07 10:31:37;;;;;;;4.28;3.88;;;13.10;94.70;;;;;;5069189;28;20203;-76
2023/12/07 10:34:05;;;;;;;4.40;4.00;;;13.00;95.00;;;;;;5073692;28;20253;-79
2023/12/07 10:36:33;;;;;;;3.88;3.58;;;12.90;95.90;;;;;;5069257;28;20202;-76
2023/12/07 10:39:00;;;;;;;4.00;3.60;;;13.20;96.50;;;;;;5073675;28;20221;-77
2023/12/07 10:41:27;;;;;;;3.80;3.50;;;13.30;96.40;;;;;;5069217;28;20215;-76
2023/12/07 10:43:58;;;;;;;4.15;3.75;;;13.30;96.30;;;;;;5070076;28;20218;-77
2023/12/07 10:46:26;;;;;;;4.78;4.38;;;13.00;96.30;;;;;;5070696;28;20201;-75
2023/12/07 10:49:00;;;;;;;5.00;4.50;;;12.90;96.90;;;;;;5065254;28;20849;-76
2023/12/07 10:51:32;;;;;;;4.22;3.83;;;12.90;96.20;;;;;;5064615;28;20665;-76
2023/12/07 10:54:03;;;;;;;4.53;4.13;;;12.80;96.90;;;;;;5065457;28;20807;-76
2023/12/07 10:56:37;;;;;;;4.20;3.80;;;12.40;96.70;;;;;;5068753;28;20233;-76
2023/12/07 10:59:04;;;;;;;4.43;4.03;;;12.20;97.80;;;;;;5060068;28;20684;-76
2023/12/07 11:01:32;;;;;;;5.10;4.30;;;12.40;98.60;;;;;;5065457;28;20222;-76
2023/12/07 11:04:02;;;;;;;5.07;4.47;;;12.20;98.80;;;;;;5063439;28;20226;-77
2023/12/07 11:06:30;;;;;;;5.55;4.07;;;12.30;99.20;;;;;;5062986;28;20210;-77
2023/12/07 11:09:01;;;;;;;5.15;4.28;;;12.60;99.30;;;;;;5064055;28;20332;-79
2023/12/07 11:11:34;;;;;;;4.47;3.88;;;12.90;98.70;;;;;;5066382;28;20190;-78
2023/12/07 11:14:05;;;;;;;5.18;4.38;;;13.20;98.60;;;;;;5062426;28;20222;-77
2023/12/07 11:16:32;;;;;;;5.95;3.97;;;13.30;98.80;;;;;;5066683;28;20201;-78
2023/12/07 11:19:01;;;;;;;5.22;4.63;;;13.30;98.50;;;;;;5069031;28;20218;-76
2023/12/07 11:21:29;;;;;;;4.60;4.20;;;13.20;99.00;;;;;;5066991;28;20219;-78
2023/12/07 11:23:56;;;;;;;5.95;4.57;;;13.30;99.00;;;;;;5067839;28;20241;-79
2023/12/07 11:26:24;;;;;;;7.00;4.53;;;13.20;98.40;;;;;;5077120;28;20199;-77
2023/12/07 11:28:51;;;;;;;7.45;5.50;;;13.10;99.00;;;;;;5064585;28;20224;-77
2023/12/07 11:31:18;;;;;;;5.45;4.95;;;12.90;99.10;;;;;;5073451;28;20240;-77
2023/12/07 11:36:43;;;;;;;5.80;4.60;;;13.00;99.40;;;;;;5067877;28;20303;-77
2023/12/07 11:42:27;;;;;;;6.60;4.53;;;13.00;98.70;;;;;;5022403;28;20226;-76
2023/12/07 11:44:54;;;;;;;4.90;4.45;;;12.90;99.40;;;;;;5064168;28;20218;-75
2023/12/07 11:47:21;;;;;;;7.47;4.10;;;12.70;99.40;;;;;;5061557;28;20204;-78
2023/12/07 11:49:49;;;;;;;4.30;3.88;;;12.90;99.30;;;;;;5058562;28;20227;-76
2023/12/07 11:52:19;;;;;;;4.82;4.35;;;13.10;99.20;;;;;;5061170;28;20202;-76
2023/12/07 11:54:46;;;;;;;4.78;4.30;;;13.00;98.70;;;;;;5057904;28;20617;-77
2023/12/07 11:57:14;;;;;;;3.85;3.55;;;12.80;99.10;;;;;;5062654;28;20279;-77
2023/12/07 11:59:42;;;;;;;4.18;3.78;;;12.60;99.20;;;;;;5068021;28;20214;-76
2023/12/07 12:02:11;;;;;;;4.47;3.53;;;12.50;98.20;;;;;;5060300;28;20222;-77
2023/12/07 12:04:38;;;;;;;4.47;3.80;;;12.40;97.60;;;;;;5066957;28;20231;-76
2023/12/07 12:07:05;;;;;;;4.53;3.50;;;12.40;98.60;;;;;;5065312;28;20194;-77
2023/12/07 12:09:34;;;;;;;3.67;3.38;;;12.40;98.30;;;;;;5064250;28;20222;-77
2023/12/07 12:12:01;;;;;;;7.57;3.67;;;12.50;98.70;;;;;;5066155;28;20261;-76
2023/12/07 12:14:29;;;;;;;3.70;3.40;;;12.60;98.50;;;;;;5061073;28;20230;-78
2023/12/07 12:16:56;;;;;;;3.58;3.35;;;12.80;98.40;;;;;;5058231;28;20199;-77
2023/12/07 12:19:24;;;;;;;3.55;3.25;;;12.70;98.30;;;;;;5062746;28;20222;-77
2023/12/07 12:21:51;;;;;;;3.42;3.13;;;12.70;98.20;;;;;;5062414;28;20214;-78
2023/12/07 12:24:18;;;;;;;3.40;3.20;;;12.50;97.80;;;;;;5062462;28;20273;-78
2023/12/07 12:26:48;;;;;;;3.30;3.00;;;12.70;97.70;;;;;;5062543;28;20202;-77
2023/12/07 12:29:16;;;;;;;3.28;2.97;;;12.70;99.00;;;;;;5061464;28;20226;-77
2023/12/07 12:31:43;;;;;;;3.70;3.40;;;12.90;98.40;;;;;;5065634;28;20201;-77
2023/12/07 12:34:13;;;;;;;3.35;3.05;;;12.80;97.30;;;;;;5069955;28;20218;-78
2023/12/07 12:36:40;;;;;;;3.05;2.85;;;12.70;97.50;;;;;;5061673;28;20237;-77
2023/12/07 12:39:08;;;;;;;3.17;2.90;;;12.60;97.50;;;;;;5064414;28;20218;-79
2023/12/07 12:41:35;;;;;;;3.83;2.80;;;12.60;97.10;;;;;;5063028;28;20229;-78
2023/12/07 12:44:04;;;;;;;3.40;2.70;;;12.80;97.90;;;;;;5068046;28;20232;-77
2023/12/07 12:46:31;;;;;;;2.70;2.50;;;12.90;97.20;;;;;;5059650;28;20202;-76
2023/12/07 12:48:59;;;;;;;3.05;2.85;;;12.80;97.10;;;;;;5057454;28;20225;-76
2023/12/07 12:51:27;;;;;;;3.08;2.70;;;12.50;95.20;;;;;;5061671;28;20660;-76
2023/12/07 12:53:56;;;;;;;3.30;3.10;;;12.40;95.30;;;;;;5065953;28;20226;-77
2023/12/07 12:56:24;;;;;;;4.40;2.92;;;12.00;96.00;;;;;;5064641;28;20209;-77
2023/12/07 12:58:51;;;;;;;3.72;2.88;;;11.80;95.20;;;;;;5063895;28;20860;-77
2023/12/07 13:01:20;;;;;;;3.33;3.03;;;11.50;95.10;;;;;;5064280;28;20222;-77
2023/12/07 13:03:47;;;;;;;5.38;4.03;;;11.20;95.30;;;;;;5061918;28;20214;-76
2023/12/07 13:06:15;;;;;;;3.85;3.25;;;10.90;96.20;;;;;;5062049;28;20206;-77
2023/12/07 13:08:43;;;;;;;4.68;3.75;;;10.60;95.50;;;;;;5061054;28;20953;-77
2023/12/07 13:11:10;;;;;;;3.88;3.38;;;10.50;95.90;;;;;;5062114;28;20198;-78
2023/12/07 13:13:37;;;;;;;5.18;2.85;;;10.40;96.50;;;;;;5064505;28;20233;-77
2023/12/07 13:16:05;;;;;;;3.00;2.80;;;10.40;96.40;;;;;;5066423;28;20197;-76
2023/12/07 13:18:33;;;;;;;2.78;2.58;;;10.30;95.20;;;;;;5071365;28;20210;-78
2023/12/07 13:21:02;;;;;;;3.05;2.83;;;10.20;95.50;;;;;;5062960;28;20206;-77
2023/12/07 13:23:29;;;;;;;2.47;2.22;;;10.20;96.10;;;;;;5066680;28;20283;-77
2023/12/07 13:25:56;;;;;;;2.78;2.58;;;10.20;95.50;;;;;;5065207;28;20203;-77
2023/12/07 13:28:23;;;;;;;2.92;2.70;;;10.20;95.20;;;;;;5067438;28;20555;-77
2023/12/07 13:30:50;;;;;;;3.30;3.00;;;10.20;95.90;;;;;;5067289;28;20194;-78